sensor_id;sensor_type;location;lat;lon;timestamp;pressure;altitude;pressure_sealevel;temperature;humidity
34177;BME280;20450;49.074;9.158;2023-12-20T00:01:10;99854.84;;;7.47;87.76
34177;BME280;20450;49.074;9.158;2023-12-20T00:03:37;99856.06;;;7.44;87.87
34177;BME280;20450;49.074;9.158;2023-12-20T00:06:09;99851.53;;;7.45;87.57
34177;BME280;20450;49.074;9.158;2023-12-20T00:08:36;99846.16;;;7.45;87.88
34177;BME280;20450;49.074;9.158;2023-12-20T00:11:04;99845.97;;;7.46;88.37
34177;BME280;20450;49.074;9.158;2023-12-20T00:13:32;99832.63;;;7.38;88.07
34177;BME280;20450;49.074;9.158;2023-12-20T00:15:59;99831.88;;;7.09;88.83
34177;BME280;20450;49.074;9.158;2023-12-20T00:18:26;99831.31;;;7.13;88.91
34177;BME280;20450;49.074;9.158;2023-12-20T00:20:54;99824.28;;;7.12;89.69
34177;BME280;20450;49.074;9.158;2023-12-20T00:23:22;99823.81;;;7.09;90.02
34177;BME280;20450;49.074;9.158;2023-12-20T00:25:50;99817.09;;;6.84;90.61
34177;BME280;20450;49.074;9.158;2023-12-20T00:28:17;99822.28;;;6.42;93.68
34177;BME280;20450;49.074;9.158;2023-12-20T00:30:45;99827.09;;;6.61;94.13
34177;BME280;20450;49.074;9.158;2023-12-20T00:33:13;99817.19;;;6.76;93.67
34177;BME280;20450;49.074;9.158;2023-12-20T00:35:40;99820.88;;;6.89;93.21
34177;BME280;20450;49.074;9.158;2023-12-20T00:38:07;99811.25;;;6.95;93.53
34177;BME280;20450;49.074;9.158;2023-12-20T00:40:34;99821.44;;;6.99;93.47
34177;BME280;20450;49.074;9.158;2023-12-20T00:43:01;99816.31;;;7.04;92.52
34177;BME280;20450;49.074;9.158;2023-12-20T00:45:30;99825.66;;;7.08;92.75
34177;BME280;20450;49.074;9.158;2023-12-20T00:48:02;99811.59;;;7.06;92.46
34177;BME280;20450;49.074;9.158;2023-12-20T00:50:29;99816.31;;;7.04;92.55
34177;BME280;20450;49.074;9.158;2023-12-20T00:52:56;99814.28;;;7.06;91.83
34177;BME280;20450;49.074;9.158;2023-12-20T00:55:24;99821.13;;;7.09;92.11
34177;BME280;20450;49.074;9.158;2023-12-20T00:57:52;99811.22;;;7.09;92.31
34177;BME280;20450;49.074;9.158;2023-12-20T01:00:19;99810.88;;;6.98;92.21
34177;BME280;20450;49.074;9.158;2023-12-20T01:02:46;99817.25;;;6.97;92.36
34177;BME280;20450;49.074;9.158;2023-12-20T01:05:15;99814.00;;;7.01;92.29
34177;BME280;20450;49.074;9.158;2023-12-20T01:07:42;99812.25;;;6.94;93.15
34177;BME280;20450;49.074;9.158;2023-12-20T01:10:10;99809.94;;;6.91;94.02
34177;BME280;20450;49.074;9.158;2023-12-20T01:12:37;99815.25;;;6.84;94.79
34177;BME280;20450;49.074;9.158;2023-12-20T01:15:06;99812.25;;;6.94;94.21
34177;BME280;20450;49.074;9.158;2023-12-20T01:17:33;99809.47;;;7.02;94.42
34177;BME280;20450;49.074;9.158;2023-12-20T01:20:01;99817.59;;;7.08;94.70
34177;BME280;20450;49.074;9.158;2023-12-20T01:22:31;99805.47;;;7.12;93.79
34177;BME280;20450;49.074;9.158;2023-12-20T01:25:01;99824.53;;;7.17;93.92
34177;BME280;20450;49.074;9.158;2023-12-20T01:27:28;99811.28;;;7.16;93.74
34177;BME280;20450;49.074;9.158;2023-12-20T01:29:55;99811.75;;;7.19;93.96
34177;BME280;20450;49.074;9.158;2023-12-20T01:32:23;99811.56;;;7.21;93.61
34177;BME280;20450;49.074;9.158;2023-12-20T01:34:50;99817.97;;;7.20;93.65
34177;BME280;20450;49.074;9.158;2023-12-20T01:37:18;99808.53;;;7.09;93.02
34177;BME280;20450;49.074;9.158;2023-12-20T01:39:47;99809.06;;;7.19;93.35
34177;BME280;20450;49.074;9.158;2023-12-20T01:42:14;99811.28;;;7.16;93.39
34177;BME280;20450;49.074;9.158;2023-12-20T01:44:41;99810.28;;;7.17;93.93
34177;BME280;20450;49.074;9.158;2023-12-20T01:47:09;99814.72;;;7.10;93.94
34177;BME280;20450;49.074;9.158;2023-12-20T01:49:37;99811.47;;;7.14;93.76
34177;BME280;20450;49.074;9.158;2023-12-20T01:52:04;99808.78;;;7.14;94.43
34177;BME280;20450;49.074;9.158;2023-12-20T01:54:37;99794.06;;;7.10;94.23
34177;BME280;20450;49.074;9.158;2023-12-20T01:57:08;99795.09;;;7.09;93.87
34177;BME280;20450;49.074;9.158;2023-12-20T01:59:39;99797.84;;;7.16;94.08
34177;BME280;20450;49.074;9.158;2023-12-20T02:02:07;99797.03;;;7.15;94.04
34177;BME280;20450;49.074;9.158;2023-12-20T02:04:36;99801.94;;;7.12;93.71
34177;BME280;20450;49.074;9.158;2023-12-20T02:07:04;99795.72;;;7.11;93.88
34177;BME280;20450;49.074;9.158;2023-12-20T02:09:31;99802.13;;;7.10;94.10
34177;BME280;20450;49.074;9.158;2023-12-20T02:11:58;99789.75;;;7.09;93.23
34177;BME280;20450;49.074;9.158;2023-12-20T02:14:28;99792.81;;;7.06;93.05
34177;BME280;20450;49.074;9.158;2023-12-20T02:16:55;99803.78;;;7.11;92.88
34177;BME280;20450;49.074;9.158;2023-12-20T02:19:22;99793.56;;;7.00;93.04
34177;BME280;20450;49.074;9.158;2023-12-20T02:22:04;99793.88;;;7.12;92.60
34177;BME280;20450;49.074;9.158;2023-12-20T02:24:33;99797.31;;;7.06;92.39
34177;BME280;20450;49.074;9.158;2023-12-20T02:27:00;99801.28;;;7.10;92.25
34177;BME280;20450;49.074;9.158;2023-12-20T02:29:27;99787.66;;;7.11;92.11
34177;BME280;20450;49.074;9.158;2023-12-20T02:31:56;99798.16;;;7.06;91.76
34177;BME280;20450;49.074;9.158;2023-12-20T02:34:23;99796.19;;;7.15;91.78
34177;BME280;20450;49.074;9.158;2023-12-20T02:36:52;99792.41;;;7.09;91.53
34177;BME280;20450;49.074;9.158;2023-12-20T02:39:22;99793.03;;;7.11;92.16
34177;BME280;20450;49.074;9.158;2023-12-20T02:41:49;99784.59;;;7.14;91.19
34177;BME280;20450;49.074;9.158;2023-12-20T02:44:17;99789.97;;;7.14;91.00
34177;BME280;20450;49.074;9.158;2023-12-20T02:46:44;99787.44;;;7.06;91.25
34177;BME280;20450;49.074;9.158;2023-12-20T02:49:11;99782.56;;;7.16;91.72
34177;BME280;20450;49.074;9.158;2023-12-20T02:51:38;99790.25;;;7.19;91.28
34177;BME280;20450;49.074;9.158;2023-12-20T02:54:08;99788.72;;;7.10;91.42
34177;BME280;20450;49.074;9.158;2023-12-20T02:56:35;99785.00;;;7.11;91.09
34177;BME280;20450;49.074;9.158;2023-12-20T02:59:03;99784.59;;;7.14;90.16
34177;BME280;20450;49.074;9.158;2023-12-20T03:01:30;99796.56;;;7.12;90.09
34177;BME280;20450;49.074;9.158;2023-12-20T03:03:58;99791.84;;;7.14;90.50
34177;BME280;20450;49.074;9.158;2023-12-20T03:06:25;99783.63;;;7.01;90.50
34177;BME280;20450;49.074;9.158;2023-12-20T03:08:52;99794.44;;;7.07;90.66
34177;BME280;20450;49.074;9.158;2023-12-20T03:11:21;99789.34;;;7.12;89.92
34177;BME280;20450;49.074;9.158;2023-12-20T03:13:48;99789.47;;;7.04;90.12
34177;BME280;20450;49.074;9.158;2023-12-20T03:16:15;99804.34;;;7.07;90.69
34177;BME280;20450;49.074;9.158;2023-12-20T03:18:42;99807.59;;;7.02;90.28
34177;BME280;20450;49.074;9.158;2023-12-20T03:21:09;99797.28;;;6.99;90.84
34177;BME280;20450;49.074;9.158;2023-12-20T03:23:37;99795.69;;;7.05;91.05
34177;BME280;20450;49.074;9.158;2023-12-20T03:26:06;99804.44;;;7.13;90.80
34177;BME280;20450;49.074;9.158;2023-12-20T03:28:36;99808.25;;;7.04;91.20
34177;BME280;20450;49.074;9.158;2023-12-20T03:31:03;99802.03;;;7.04;90.84
34177;BME280;20450;49.074;9.158;2023-12-20T03:33:31;99801.09;;;7.11;90.97
34177;BME280;20450;49.074;9.158;2023-12-20T03:35:59;99800.72;;;7.14;90.67
34177;BME280;20450;49.074;9.158;2023-12-20T03:38:26;99800.47;;;7.09;91.28
34177;BME280;20450;49.074;9.158;2023-12-20T03:40:53;99798.16;;;7.06;91.18
34177;BME280;20450;49.074;9.158;2023-12-20T03:43:21;99803.78;;;7.11;91.14
34177;BME280;20450;49.074;9.158;2023-12-20T03:45:50;99808.16;;;7.12;91.08
34177;BME280;20450;49.074;9.158;2023-12-20T03:48:16;99810.38;;;7.09;90.33
34177;BME280;20450;49.074;9.158;2023-12-20T03:50:45;99816.97;;;7.06;91.09
34177;BME280;20450;49.074;9.158;2023-12-20T03:53:12;99809.28;;;7.03;91.34
34177;BME280;20450;49.074;9.158;2023-12-20T03:55:41;99819.47;;;7.08;91.29
34177;BME280;20450;49.074;9.158;2023-12-20T03:58:08;99821.31;;;7.07;91.18
34177;BME280;20450;49.074;9.158;2023-12-20T04:00:36;99812.06;;;6.95;90.86
34177;BME280;20450;49.074;9.158;2023-12-20T04:03:04;99799.31;;;6.97;90.93
34177;BME280;20450;49.074;9.158;2023-12-20T04:05:32;99805.94;;;7.01;90.97
34177;BME280;20450;49.074;9.158;2023-12-20T04:08:05;99798.97;;;7.07;90.11
34177;BME280;20450;49.074;9.158;2023-12-20T04:10:48;99793.69;;;7.13;90.25
34177;BME280;20450;49.074;9.158;2023-12-20T04:13:15;99793.69;;;7.13;90.47
34177;BME280;20450;49.074;9.158;2023-12-20T04:15:42;99821.59;;;7.12;89.79
34177;BME280;20450;49.074;9.158;2023-12-20T04:18:11;99835.41;;;7.09;90.49
34177;BME280;20450;49.074;9.158;2023-12-20T04:20:38;99803.41;;;7.14;89.62
34177;BME280;20450;49.074;9.158;2023-12-20T04:23:06;99817.78;;;7.21;89.56
34177;BME280;20450;49.074;9.158;2023-12-20T04:25:33;99820.66;;;7.20;89.46
34177;BME280;20450;49.074;9.158;2023-12-20T04:28:00;99831.59;;;7.18;89.11
34177;BME280;20450;49.074;9.158;2023-12-20T04:30:27;99836.41;;;7.08;89.64
34177;BME280;20450;49.074;9.158;2023-12-20T04:32:54;99841.22;;;7.13;89.81
34177;BME280;20450;49.074;9.158;2023-12-20T04:35:24;99843.69;;;7.14;90.08
34177;BME280;20450;49.074;9.158;2023-12-20T04:37:51;99839.66;;;7.18;90.50
34177;BME280;20450;49.074;9.158;2023-12-20T04:40:18;99841.16;;;7.06;90.43
34177;BME280;20450;49.074;9.158;2023-12-20T04:42:45;99835.03;;;7.12;90.80
34177;BME280;20450;49.074;9.158;2023-12-20T04:45:12;99825.09;;;7.13;90.58
34177;BME280;20450;49.074;9.158;2023-12-20T04:47:41;99830.22;;;7.08;90.87
34177;BME280;20450;49.074;9.158;2023-12-20T04:50:09;99832.97;;;7.14;90.83
34177;BME280;20450;49.074;9.158;2023-12-20T04:52:38;99824.91;;;7.14;91.21
34177;BME280;20450;49.074;9.158;2023-12-20T04:55:08;99827.59;;;7.14;91.10
34177;BME280;20450;49.074;9.158;2023-12-20T04:57:36;99829.28;;;7.01;91.65
34177;BME280;20450;49.074;9.158;2023-12-20T05:00:05;99831.69;;;7.10;90.86
34177;BME280;20450;49.074;9.158;2023-12-20T05:02:32;99842.63;;;7.09;91.30
34177;BME280;20450;49.074;9.158;2023-12-20T05:05:00;99850.38;;;7.18;91.26
34177;BME280;20450;49.074;9.158;2023-12-20T05:07:27;99855.84;;;7.10;91.70
34177;BME280;20450;49.074;9.158;2023-12-20T05:09:56;99860.75;;;7.07;91.87
34177;BME280;20450;49.074;9.158;2023-12-20T05:12:23;99851.13;;;7.12;92.03
34177;BME280;20450;49.074;9.158;2023-12-20T05:14:52;99847.50;;;7.05;92.43
34177;BME280;20450;49.074;9.158;2023-12-20T05:17:19;99860.31;;;7.03;93.25
34177;BME280;20450;49.074;9.158;2023-12-20T05:19:46;99861.50;;;7.01;93.04
34177;BME280;20450;49.074;9.158;2023-12-20T05:22:13;99865.31;;;7.06;93.53
34177;BME280;20450;49.074;9.158;2023-12-20T05:24:42;99884.50;;;7.03;93.57
34177;BME280;20450;49.074;9.158;2023-12-20T05:27:11;99876.50;;;6.95;93.83
34177;BME280;20450;49.074;9.158;2023-12-20T05:29:38;99881.25;;;7.08;93.27
34177;BME280;20450;49.074;9.158;2023-12-20T05:32:06;99881.69;;;7.11;93.25
34177;BME280;20450;49.074;9.158;2023-12-20T05:34:34;99886.44;;;7.09;92.82
34177;BME280;20450;49.074;9.158;2023-12-20T05:37:02;99900.13;;;7.14;93.17
34177;BME280;20450;49.074;9.158;2023-12-20T05:39:29;99902.06;;;7.20;93.53
34177;BME280;20450;49.074;9.158;2023-12-20T05:41:56;99901.16;;;7.13;93.46
34177;BME280;20450;49.074;9.158;2023-12-20T05:44:25;99916.88;;;7.16;93.76
34177;BME280;20450;49.074;9.158;2023-12-20T05:46:52;99907.72;;;7.11;94.17
34177;BME280;20450;49.074;9.158;2023-12-20T05:49:19;99916.88;;;7.16;94.29
34177;BME280;20450;49.074;9.158;2023-12-20T05:52:07;99922.19;;;7.24;94.64
34177;BME280;20450;49.074;9.158;2023-12-20T05:54:35;99913.47;;;7.22;94.28
34177;BME280;20450;49.074;9.158;2023-12-20T05:57:02;99928.00;;;7.28;94.77
34177;BME280;20450;49.074;9.158;2023-12-20T05:59:31;99931.16;;;7.31;93.95
34177;BME280;20450;49.074;9.158;2023-12-20T06:01:58;99938.47;;;7.37;93.85
34177;BME280;20450;49.074;9.158;2023-12-20T06:04:26;99930.69;;;7.42;93.21
34177;BME280;20450;49.074;9.158;2023-12-20T06:06:53;99954.09;;;7.48;93.32
34177;BME280;20450;49.074;9.158;2023-12-20T06:09:20;99943.16;;;7.50;93.72
34177;BME280;20450;49.074;9.158;2023-12-20T06:11:47;99938.38;;;7.45;93.20
34177;BME280;20450;49.074;9.158;2023-12-20T06:14:14;99935.09;;;7.50;92.79
34177;BME280;20450;49.074;9.158;2023-12-20T06:16:43;99938.91;;;7.55;92.83
34177;BME280;20450;49.074;9.158;2023-12-20T06:19:10;99922.31;;;7.52;91.99
34177;BME280;20450;49.074;9.158;2023-12-20T06:21:39;99934.81;;;7.59;92.01
34177;BME280;20450;49.074;9.158;2023-12-20T06:24:10;99932.34;;;7.43;92.55
34177;BME280;20450;49.074;9.158;2023-12-20T06:26:37;99948.91;;;7.47;92.37
34177;BME280;20450;49.074;9.158;2023-12-20T06:29:04;99948.09;;;7.46;92.95
34177;BME280;20450;49.074;9.158;2023-12-20T06:31:33;99942.06;;;7.44;92.15
34177;BME280;20450;49.074;9.158;2023-12-20T06:34:01;99945.22;;;7.48;92.42
34177;BME280;20450;49.074;9.158;2023-12-20T06:36:29;99951.16;;;7.43;92.27
34177;BME280;20450;49.074;9.158;2023-12-20T06:38:56;99959.66;;;7.32;92.14
34177;BME280;20450;49.074;9.158;2023-12-20T06:41:23;99955.25;;;7.39;92.23
34177;BME280;20450;49.074;9.158;2023-12-20T06:43:50;99950.69;;;7.40;92.64
34177;BME280;20450;49.074;9.158;2023-12-20T06:46:17;99963.75;;;7.43;92.00
34177;BME280;20450;49.074;9.158;2023-12-20T06:48:46;99970.03;;;7.50;91.91
34177;BME280;20450;49.074;9.158;2023-12-20T06:51:16;99970.63;;;7.45;91.75
34177;BME280;20450;49.074;9.158;2023-12-20T06:53:43;99960.69;;;7.46;92.77
34177;BME280;20450;49.074;9.158;2023-12-20T06:56:11;99979.50;;;7.46;92.01
34177;BME280;20450;49.074;9.158;2023-12-20T06:58:41;99972.91;;;7.48;92.00
34177;BME280;20450;49.074;9.158;2023-12-20T07:01:11;99985.53;;;7.48;91.96
34177;BME280;20450;49.074;9.158;2023-12-20T07:03:38;99991.34;;;7.51;91.37
34177;BME280;20450;49.074;9.158;2023-12-20T07:06:05;99998.50;;;7.44;92.03
34177;BME280;20450;49.074;9.158;2023-12-20T07:08:34;100007.03;;;7.48;92.21
34177;BME280;20450;49.074;9.158;2023-12-20T07:11:02;100002.88;;;7.45;92.52
34177;BME280;20450;49.074;9.158;2023-12-20T07:13:29;100005.16;;;7.48;92.33
34177;BME280;20450;49.074;9.158;2023-12-20T07:15:57;100009.91;;;7.46;91.98
34177;BME280;20450;49.074;9.158;2023-12-20T07:18:25;100003.59;;;7.54;91.77
34177;BME280;20450;49.074;9.158;2023-12-20T07:20:52;100000.97;;;7.60;91.00
34177;BME280;20450;49.074;9.158;2023-12-20T07:23:19;100010.72;;;7.61;90.84
34177;BME280;20450;49.074;9.158;2023-12-20T07:25:48;100013.13;;;7.56;91.21
34177;BME280;20450;49.074;9.158;2023-12-20T07:28:15;100016.94;;;7.47;91.70
34177;BME280;20450;49.074;9.158;2023-12-20T07:30:43;100018.34;;;7.43;91.14
34177;BME280;20450;49.074;9.158;2023-12-20T07:33:10;100023.91;;;7.42;91.64
34177;BME280;20450;49.074;9.158;2023-12-20T07:35:37;100023.97;;;7.48;91.58
34177;BME280;20450;49.074;9.158;2023-12-20T07:38:04;100025.09;;;7.54;91.14
34177;BME280;20450;49.074;9.158;2023-12-20T07:40:31;100037.81;;;7.60;90.27
34177;BME280;20450;49.074;9.158;2023-12-20T07:43:00;100026.56;;;7.56;89.01
34177;BME280;20450;49.074;9.158;2023-12-20T07:45:27;100035.84;;;7.54;89.07
34177;BME280;20450;49.074;9.158;2023-12-20T07:47:55;100041.13;;;7.62;89.70
34177;BME280;20450;49.074;9.158;2023-12-20T07:50:22;100036.28;;;7.57;89.41
34177;BME280;20450;49.074;9.158;2023-12-20T07:52:49;100041.13;;;7.47;88.78
34177;BME280;20450;49.074;9.158;2023-12-20T07:55:16;100044.47;;;7.49;89.51
34177;BME280;20450;49.074;9.158;2023-12-20T07:57:43;100044.34;;;7.57;88.52
34177;BME280;20450;49.074;9.158;2023-12-20T08:00:13;100045.88;;;7.60;87.93
34177;BME280;20450;49.074;9.158;2023-12-20T08:02:40;100050.22;;;7.46;87.83
34177;BME280;20450;49.074;9.158;2023-12-20T08:05:07;100043.44;;;7.50;87.59
34177;BME280;20450;49.074;9.158;2023-12-20T08:07:35;100050.94;;;7.55;88.02
34177;BME280;20450;49.074;9.158;2023-12-20T08:10:02;100054.47;;;7.70;87.36
34177;BME280;20450;49.074;9.158;2023-12-20T08:12:30;100049.63;;;7.80;86.69
34177;BME280;20450;49.074;9.158;2023-12-20T08:14:59;100057.69;;;7.80;86.33
34177;BME280;20450;49.074;9.158;2023-12-20T08:17:28;100064.75;;;7.95;85.56
34177;BME280;20450;49.074;9.158;2023-12-20T08:19:56;100065.28;;;8.05;85.48
34177;BME280;20450;49.074;9.158;2023-12-20T08:22:23;100048.00;;;8.15;84.53
34177;BME280;20450;49.074;9.158;2023-12-20T08:24:50;100051.34;;;9.22;80.53
34177;BME280;20450;49.074;9.158;2023-12-20T08:27:17;100056.09;;;10.22;75.91
34177;BME280;20450;49.074;9.158;2023-12-20T08:29:45;100054.34;;;11.27;70.99
34177;BME280;20450;49.074;9.158;2023-12-20T08:32:12;100059.00;;;11.97;67.07
34177;BME280;20450;49.074;9.158;2023-12-20T08:34:40;100054.59;;;12.53;64.10
34177;BME280;20450;49.074;9.158;2023-12-20T08:37:07;100052.75;;;13.09;63.22
34177;BME280;20450;49.074;9.158;2023-12-20T08:39:35;100061.06;;;13.38;59.86
34177;BME280;20450;49.074;9.158;2023-12-20T08:42:03;100072.34;;;13.96;58.65
34177;BME280;20450;49.074;9.158;2023-12-20T08:44:31;100086.25;;;14.24;56.46
34177;BME280;20450;49.074;9.158;2023-12-20T08:46:58;100085.56;;;15.17;54.04
34177;BME280;20450;49.074;9.158;2023-12-20T08:49:24;100086.22;;;15.42;54.02
34177;BME280;20450;49.074;9.158;2023-12-20T08:51:53;100076.59;;;14.10;55.44
34177;BME280;20450;49.074;9.158;2023-12-20T08:54:20;100061.47;;;13.11;57.44
34177;BME280;20450;49.074;9.158;2023-12-20T08:56:47;100066.63;;;14.04;55.34
34177;BME280;20450;49.074;9.158;2023-12-20T08:59:14;100072.53;;;14.37;54.29
34177;BME280;20450;49.074;9.158;2023-12-20T09:01:41;100085.88;;;14.98;51.99
34177;BME280;20450;49.074;9.158;2023-12-20T09:04:08;100093.09;;;15.91;50.37
34177;BME280;20450;49.074;9.158;2023-12-20T09:06:36;100107.03;;;16.18;48.23
34177;BME280;20450;49.074;9.158;2023-12-20T09:09:05;100094.25;;;16.18;48.26
34177;BME280;20450;49.074;9.158;2023-12-20T09:11:32;100101.31;;;16.42;47.80
34177;BME280;20450;49.074;9.158;2023-12-20T09:13:59;100094.25;;;15.95;48.00
34177;BME280;20450;49.074;9.158;2023-12-20T09:16:26;100092.16;;;16.37;47.33
34177;BME280;20450;49.074;9.158;2023-12-20T09:18:53;100086.34;;;15.82;47.90
34177;BME280;20450;49.074;9.158;2023-12-20T09:21:20;100086.31;;;16.17;47.61
34177;BME280;20450;49.074;9.158;2023-12-20T09:23:47;100054.84;;;14.76;49.90
34177;BME280;20450;49.074;9.158;2023-12-20T09:26:15;100062.94;;;15.05;49.05
34177;BME280;20450;49.074;9.158;2023-12-20T09:28:42;100059.41;;;15.16;49.68
34177;BME280;20450;49.074;9.158;2023-12-20T09:31:09;100095.09;;;15.49;47.46
34177;BME280;20450;49.074;9.158;2023-12-20T09:33:36;100101.34;;;16.31;46.37
34177;BME280;20450;49.074;9.158;2023-12-20T09:36:04;100103.50;;;15.94;46.78
34177;BME280;20450;49.074;9.158;2023-12-20T09:38:32;100105.22;;;16.35;45.89
34177;BME280;20450;49.074;9.158;2023-12-20T09:40:59;100106.75;;;16.54;45.80
34177;BME280;20450;49.074;9.158;2023-12-20T09:43:29;100111.03;;;16.50;45.60
34177;BME280;20450;49.074;9.158;2023-12-20T09:46:00;100108.75;;;15.84;46.35
34177;BME280;20450;49.074;9.158;2023-12-20T09:48:27;100103.03;;;16.20;45.72
34177;BME280;20450;49.074;9.158;2023-12-20T09:50:55;100100.88;;;15.41;46.55
34177;BME280;20450;49.074;9.158;2023-12-20T09:53:24;100095.38;;;15.18;47.11
34177;BME280;20450;49.074;9.158;2023-12-20T09:55:53;100094.53;;;15.70;46.18
34177;BME280;20450;49.074;9.158;2023-12-20T09:58:20;100105.16;;;15.37;45.95
34177;BME280;20450;49.074;9.158;2023-12-20T10:00:48;100118.78;;;15.84;45.58
34177;BME280;20450;49.074;9.158;2023-12-20T10:03:16;100126.25;;;16.11;44.54
34177;BME280;20450;49.074;9.158;2023-12-20T10:05:52;100131.31;;;16.31;44.07
34177;BME280;20450;49.074;9.158;2023-12-20T10:08:24;100135.50;;;16.73;42.73
34177;BME280;20450;49.074;9.158;2023-12-20T10:10:51;100128.00;;;16.29;43.46
34177;BME280;20450;49.074;9.158;2023-12-20T10:13:19;100116.88;;;16.07;44.33
34177;BME280;20450;49.074;9.158;2023-12-20T10:15:46;100123.66;;;16.67;42.79
34177;BME280;20450;49.074;9.158;2023-12-20T10:18:15;100136.38;;;17.18;41.13
34177;BME280;20450;49.074;9.158;2023-12-20T10:20:42;100118.88;;;16.12;43.52
34177;BME280;20450;49.074;9.158;2023-12-20T10:23:10;100119.22;;;16.50;42.74
34177;BME280;20450;49.074;9.158;2023-12-20T10:25:37;100129.88;;;16.51;42.35
34177;BME280;20450;49.074;9.158;2023-12-20T10:28:11;100132.56;;;17.19;40.94
34177;BME280;20450;49.074;9.158;2023-12-20T10:30:40;100142.81;;;17.90;39.79
34177;BME280;20450;49.074;9.158;2023-12-20T10:33:09;100150.66;;;17.86;39.27
34177;BME280;20450;49.074;9.158;2023-12-20T10:35:41;100142.75;;;16.95;40.99
34177;BME280;20450;49.074;9.158;2023-12-20T10:38:14;100146.28;;;17.52;39.81
34177;BME280;20450;49.074;9.158;2023-12-20T10:40:45;100131.91;;;16.33;41.51
34177;BME280;20450;49.074;9.158;2023-12-20T10:43:13;100131.56;;;16.29;41.46
34177;BME280;20450;49.074;9.158;2023-12-20T10:45:43;100125.34;;;16.34;41.49
34177;BME280;20450;49.074;9.158;2023-12-20T10:48:10;100127.09;;;16.63;40.64
34177;BME280;20450;49.074;9.158;2023-12-20T10:50:38;100127.25;;;17.29;39.89
34177;BME280;20450;49.074;9.158;2023-12-20T10:53:12;100131.78;;;16.39;40.98
34177;BME280;20450;49.074;9.158;2023-12-20T10:55:40;100111.56;;;16.12;42.06
34177;BME280;20450;49.074;9.158;2023-12-20T10:58:09;100122.09;;;17.44;39.89
34177;BME280;20450;49.074;9.158;2023-12-20T11:00:39;100145.25;;;17.41;39.22
34177;BME280;20450;49.074;9.158;2023-12-20T11:03:09;100134.50;;;17.51;38.87
34177;BME280;20450;49.074;9.158;2023-12-20T11:05:43;100134.00;;;18.26;38.25
34177;BME280;20450;49.074;9.158;2023-12-20T11:08:26;100144.75;;;18.49;37.31
34177;BME280;20450;49.074;9.158;2023-12-20T11:11:04;100153.78;;;18.92;37.06
34177;BME280;20450;49.074;9.158;2023-12-20T11:13:43;100144.69;;;17.89;38.11
34177;BME280;20450;49.074;9.158;2023-12-20T11:16:20;100118.22;;;17.56;39.78
34177;BME280;20450;49.074;9.158;2023-12-20T11:18:50;100105.91;;;17.09;40.06
34177;BME280;20450;49.074;9.158;2023-12-20T11:21:17;100107.13;;;17.63;40.00
34177;BME280;20450;49.074;9.158;2023-12-20T11:23:46;100092.88;;;15.81;42.63
34177;BME280;20450;49.074;9.158;2023-12-20T11:26:15;100042.25;;;13.98;46.48
34177;BME280;20450;49.074;9.158;2023-12-20T11:28:42;100025.19;;;13.12;49.88
34177;BME280;20450;49.074;9.158;2023-12-20T11:31:14;100023.78;;;12.10;51.72
34177;BME280;20450;49.074;9.158;2023-12-20T11:33:42;100049.50;;;13.85;48.04
34177;BME280;20450;49.074;9.158;2023-12-20T11:36:13;100074.31;;;15.02;44.41
34177;BME280;20450;49.074;9.158;2023-12-20T11:38:53;100093.56;;;15.88;42.39
34177;BME280;20450;49.074;9.158;2023-12-20T11:41:22;100111.66;;;16.96;40.04
34177;BME280;20450;49.074;9.158;2023-12-20T11:43:52;100084.31;;;14.90;43.64
34177;BME280;20450;49.074;9.158;2023-12-20T11:46:20;100043.59;;;13.70;46.74
34177;BME280;20450;49.074;9.158;2023-12-20T11:48:47;100018.44;;;13.21;48.29
34177;BME280;20450;49.074;9.158;2023-12-20T11:51:15;100022.34;;;13.25;48.26
34177;BME280;20450;49.074;9.158;2023-12-20T11:53:42;100016.41;;;12.85;48.86
34177;BME280;20450;49.074;9.158;2023-12-20T11:56:13;100005.63;;;12.48;50.61
34177;BME280;20450;49.074;9.158;2023-12-20T11:58:39;100014.88;;;12.34;50.43
34177;BME280;20450;49.074;9.158;2023-12-20T12:01:06;100031.53;;;14.03;47.30
34177;BME280;20450;49.074;9.158;2023-12-20T12:03:34;100062.22;;;14.69;45.31
34177;BME280;20450;49.074;9.158;2023-12-20T12:06:01;100072.03;;;15.75;43.36
34177;BME280;20450;49.074;9.158;2023-12-20T12:08:29;100103.75;;;17.11;40.46
34177;BME280;20450;49.074;9.158;2023-12-20T12:10:56;100113.16;;;17.48;39.13
34177;BME280;20450;49.074;9.158;2023-12-20T12:13:25;100101.84;;;16.05;41.14
34177;BME280;20450;49.074;9.158;2023-12-20T12:15:53;100089.06;;;16.84;40.17
34177;BME280;20450;49.074;9.158;2023-12-20T12:18:20;100074.03;;;15.80;41.74
34177;BME280;20450;49.074;9.158;2023-12-20T12:20:47;100011.41;;;13.13;48.89
34177;BME280;20450;49.074;9.158;2023-12-20T12:23:22;100001.38;;;11.83;53.96
34177;BME280;20450;49.074;9.158;2023-12-20T12:25:49;99993.00;;;11.01;56.91
34177;BME280;20450;49.074;9.158;2023-12-20T12:28:19;99994.28;;;10.73;58.13
34177;BME280;20450;49.074;9.158;2023-12-20T12:30:57;99987.75;;;11.32;56.83
34177;BME280;20450;49.074;9.158;2023-12-20T12:33:24;99993.81;;;12.67;53.22
34177;BME280;20450;49.074;9.158;2023-12-20T12:35:52;100011.94;;;12.97;50.99
34177;BME280;20450;49.074;9.158;2023-12-20T12:38:20;100010.78;;;13.36;50.56
34177;BME280;20450;49.074;9.158;2023-12-20T12:40:47;100003.25;;;12.27;52.36
34177;BME280;20450;49.074;9.158;2023-12-20T12:43:14;100004.97;;;12.15;53.76
34177;BME280;20450;49.074;9.158;2023-12-20T12:45:41;99998.59;;;10.80;57.95
34177;BME280;20450;49.074;9.158;2023-12-20T12:48:11;100003.19;;;10.47;59.93
34177;BME280;20450;49.074;9.158;2023-12-20T12:50:38;100004.00;;;11.26;58.18
34177;BME280;20450;49.074;9.158;2023-12-20T12:53:05;100007.16;;;11.03;57.99
34177;BME280;20450;49.074;9.158;2023-12-20T12:55:33;99993.72;;;10.11;60.88
34177;BME280;20450;49.074;9.158;2023-12-20T12:58:02;99995.06;;;10.41;60.69
34177;BME280;20450;49.074;9.158;2023-12-20T13:00:29;99989.00;;;10.26;61.03
34177;BME280;20450;49.074;9.158;2023-12-20T13:02:56;99996.75;;;9.94;62.18
34177;BME280;20450;49.074;9.158;2023-12-20T13:05:25;100003.38;;;9.79;63.26
34177;BME280;20450;49.074;9.158;2023-12-20T13:07:52;100004.63;;;9.83;63.02